sensor_id;sensor_type;location;lat;lon;timestamp;temperature;humidity
73137;DHT22;62977;45.636;11.750;2022-11-14T00:02:10;12.70;81.70
73137;DHT22;62977;45.636;11.750;2022-11-14T00:04:36;12.70;83.20
73137;DHT22;62977;45.636;11.750;2022-11-14T00:07:01;12.80;81.60
73137;DHT22;62977;45.636;11.750;2022-11-14T00:09:28;12.70;81.80
73137;DHT22;62977;45.636;11.750;2022-11-14T00:11:54;12.70;81.70
73137;DHT22;62977;45.636;11.750;2022-11-14T00:14:20;12.70;81.60
73137;DHT22;62977;45.636;11.750;2022-11-14T00:16:46;12.70;81.90
73137;DHT22;62977;45.636;11.750;2022-11-14T00:19:12;12.70;81.60
73137;DHT22;62977;45.636;11.750;2022-11-14T00:21:38;12.70;81.60
73137;DHT22;62977;45.636;11.750;2022-11-14T00:24:04;12.70;83.00
73137;DHT22;62977;45.636;11.750;2022-11-14T00:26:29;12.90;81.90
73137;DHT22;62977;45.636;11.750;2022-11-14T00:28:55;12.80;81.90
73137;DHT22;62977;45.636;11.750;2022-11-14T00:31:21;12.80;81.90
73137;DHT22;62977;45.636;11.750;2022-11-14T00:33:46;12.70;82.10
73137;DHT22;62977;45.636;11.750;2022-11-14T00:36:12;12.80;81.90
73137;DHT22;62977;45.636;11.750;2022-11-14T00:38:38;12.80;81.80
73137;DHT22;62977;45.636;11.750;2022-11-14T00:41:03;12.80;81.80
73137;DHT22;62977;45.636;11.750;2022-11-14T00:43:29;12.70;81.80
73137;DHT22;62977;45.636;11.750;2022-11-14T00:45:55;12.70;81.90
73137;DHT22;62977;45.636;11.750;2022-11-14T00:48:20;12.70;82.00
73137;DHT22;62977;45.636;11.750;2022-11-14T00:50:46;12.70;83.00
73137;DHT22;62977;45.636;11.750;2022-11-14T00:53:12;12.70;81.70
73137;DHT22;62977;45.636;11.750;2022-11-14T00:55:38;12.80;81.80
73137;DHT22;62977;45.636;11.750;2022-11-14T00:58:04;12.70;81.90
73137;DHT22;62977;45.636;11.750;2022-11-14T01:00:30;12.80;82.10
73137;DHT22;62977;45.636;11.750;2022-11-14T01:02:55;12.70;81.80
73137;DHT22;62977;45.636;11.750;2022-11-14T01:05:23;12.70;82.00
73137;DHT22;62977;45.636;11.750;2022-11-14T01:07:49;12.80;82.20
73137;DHT22;62977;45.636;11.750;2022-11-14T01:10:16;12.80;82.10
73137;DHT22;62977;45.636;11.750;2022-11-14T01:12:42;12.70;82.40
73137;DHT22;62977;45.636;11.750;2022-11-14T01:15:08;12.70;82.20
73137;DHT22;62977;45.636;11.750;2022-11-14T01:17:33;12.80;82.20
73137;DHT22;62977;45.636;11.750;2022-11-14T01:19:59;12.70;82.30
73137;DHT22;62977;45.636;11.750;2022-11-14T01:22:25;12.70;83.50
73137;DHT22;62977;45.636;11.750;2022-11-14T01:24:50;12.70;83.60
73137;DHT22;62977;45.636;11.750;2022-11-14T01:27:16;12.70;82.10
73137;DHT22;62977;45.636;11.750;2022-11-14T01:29:42;12.70;82.50
73137;DHT22;62977;45.636;11.750;2022-11-14T01:32:07;12.70;82.30
73137;DHT22;62977;45.636;11.750;2022-11-14T01:34:33;12.70;83.50
73137;DHT22;62977;45.636;11.750;2022-11-14T01:36:59;12.70;82.50
73137;DHT22;62977;45.636;11.750;2022-11-14T01:39:27;12.60;83.80
73137;DHT22;62977;45.636;11.750;2022-11-14T01:41:53;12.60;83.70
73137;DHT22;62977;45.636;11.750;2022-11-14T01:47:07;12.70;82.50
73137;DHT22;62977;45.636;11.750;2022-11-14T01:49:40;12.70;82.50
73137;DHT22;62977;45.636;11.750;2022-11-14T01:52:16;12.60;83.60
73137;DHT22;62977;45.636;11.750;2022-11-14T01:54:48;12.60;83.80
73137;DHT22;62977;45.636;11.750;2022-11-14T01:57:18;12.50;83.90
73137;DHT22;62977;45.636;11.750;2022-11-14T01:59:48;12.50;84.10
73137;DHT22;62977;45.636;11.750;2022-11-14T02:02:19;12.50;84.30
73137;DHT22;62977;45.636;11.750;2022-11-14T02:04:53;12.50;84.20
73137;DHT22;62977;45.636;11.750;2022-11-14T02:07:20;12.40;84.40
73137;DHT22;62977;45.636;11.750;2022-11-14T02:09:47;12.40;84.60
73137;DHT22;62977;45.636;11.750;2022-11-14T02:12:15;12.40;84.30
73137;DHT22;62977;45.636;11.750;2022-11-14T02:14:42;12.40;84.30
73137;DHT22;62977;45.636;11.750;2022-11-14T02:17:10;12.50;84.20
73137;DHT22;62977;45.636;11.750;2022-11-14T02:19:51;12.40;84.50
73137;DHT22;62977;45.636;11.750;2022-11-14T02:22:17;12.40;84.70
73137;DHT22;62977;45.636;11.750;2022-11-14T02:24:43;12.30;84.70
73137;DHT22;62977;45.636;11.750;2022-11-14T02:27:10;12.30;84.70
73137;DHT22;62977;45.636;11.750;2022-11-14T02:29:37;12.20;85.00
73137;DHT22;62977;45.636;11.750;2022-11-14T02:32:03;12.30;85.10
73137;DHT22;62977;45.636;11.750;2022-11-14T02:34:29;12.30;84.80
73137;DHT22;62977;45.636;11.750;2022-11-14T02:36:55;12.30;84.60
73137;DHT22;62977;45.636;11.750;2022-11-14T02:39:21;12.40;84.60
73137;DHT22;62977;45.636;11.750;2022-11-14T02:41:46;12.50;84.50
73137;DHT22;62977;45.636;11.750;2022-11-14T02:44:12;12.40;84.30
73137;DHT22;62977;45.636;11.750;2022-11-14T02:46:37;12.50;84.50
73137;DHT22;62977;45.636;11.750;2022-11-14T02:49:03;12.50;84.40
73137;DHT22;62977;45.636;11.750;2022-11-14T02:51:29;12.50;84.50
73137;DHT22;62977;45.636;11.750;2022-11-14T02:53:54;12.50;84.50
73137;DHT22;62977;45.636;11.750;2022-11-14T02:56:20;12.50;84.40
73137;DHT22;62977;45.636;11.750;2022-11-14T02:58:46;12.60;84.50
73137;DHT22;62977;45.636;11.750;2022-11-14T03:01:12;12.60;84.30
73137;DHT22;62977;45.636;11.750;2022-11-14T03:03:37;12.50;84.30
73137;DHT22;62977;45.636;11.750;2022-11-14T03:06:03;12.60;84.30
73137;DHT22;62977;45.636;11.750;2022-11-14T03:08:29;12.70;84.40
73137;DHT22;62977;45.636;11.750;2022-11-14T03:10:55;12.70;82.80
73137;DHT22;62977;45.636;11.750;2022-11-14T03:13:21;12.60;84.10
73137;DHT22;62977;45.636;11.750;2022-11-14T03:15:46;12.40;84.10
73137;DHT22;62977;45.636;11.750;2022-11-14T03:18:12;12.40;84.50
73137;DHT22;62977;45.636;11.750;2022-11-14T03:20:38;12.50;84.60
73137;DHT22;62977;45.636;11.750;2022-11-14T03:23:04;12.40;84.70
73137;DHT22;62977;45.636;11.750;2022-11-14T03:25:30;12.30;84.70
73137;DHT22;62977;45.636;11.750;2022-11-14T03:27:56;12.40;84.70
73137;DHT22;62977;45.636;11.750;2022-11-14T03:30:21;12.30;84.80
73137;DHT22;62977;45.636;11.750;2022-11-14T03:32:47;12.30;84.70
73137;DHT22;62977;45.636;11.750;2022-11-14T03:35:13;12.30;84.60
73137;DHT22;62977;45.636;11.750;2022-11-14T03:37:39;12.40;84.80
73137;DHT22;62977;45.636;11.750;2022-11-14T03:40:05;12.40;84.80
73137;DHT22;62977;45.636;11.750;2022-11-14T03:42:34;12.40;84.80
73137;DHT22;62977;45.636;11.750;2022-11-14T03:45:00;12.30;85.00
73137;DHT22;62977;45.636;11.750;2022-11-14T03:47:25;12.30;85.00
73137;DHT22;62977;45.636;11.750;2022-11-14T03:49:51;12.40;85.00
73137;DHT22;62977;45.636;11.750;2022-11-14T03:52:17;12.30;85.10
73137;DHT22;62977;45.636;11.750;2022-11-14T03:54:42;12.30;84.90
73137;DHT22;62977;45.636;11.750;2022-11-14T03:57:08;12.20;84.90
73137;DHT22;62977;45.636;11.750;2022-11-14T03:59:34;12.20;85.30
73137;DHT22;62977;45.636;11.750;2022-11-14T04:01:59;12.30;85.20
73137;DHT22;62977;45.636;11.750;2022-11-14T04:04:25;12.20;85.20
73137;DHT22;62977;45.636;11.750;2022-11-14T04:06:51;12.20;85.20
73137;DHT22;62977;45.636;11.750;2022-11-14T04:09:16;12.30;85.30
73137;DHT22;62977;45.636;11.750;2022-11-14T04:11:42;12.40;85.10
73137;DHT22;62977;45.636;11.750;2022-11-14T04:14:08;12.30;84.80
73137;DHT22;62977;45.636;11.750;2022-11-14T04:16:34;12.30;84.90
73137;DHT22;62977;45.636;11.750;2022-11-14T04:19:00;12.20;85.00
73137;DHT22;62977;45.636;11.750;2022-11-14T04:21:26;12.30;84.60
73137;DHT22;62977;45.636;11.750;2022-11-14T04:23:51;12.30;84.70
73137;DHT22;62977;45.636;11.750;2022-11-14T04:26:17;12.20;84.80
73137;DHT22;62977;45.636;11.750;2022-11-14T04:28:43;12.30;85.10
73137;DHT22;62977;45.636;11.750;2022-11-14T04:31:08;12.40;84.70
73137;DHT22;62977;45.636;11.750;2022-11-14T04:33:34;12.20;84.60
73137;DHT22;62977;45.636;11.750;2022-11-14T04:35:59;12.40;84.50
73137;DHT22;62977;45.636;11.750;2022-11-14T04:38:25;12.30;84.50
73137;DHT22;62977;45.636;11.750;2022-11-14T04:40:51;12.30;84.50
73137;DHT22;62977;45.636;11.750;2022-11-14T04:43:18;12.30;84.60
73137;DHT22;62977;45.636;11.750;2022-11-14T04:45:45;12.10;84.70
73137;DHT22;62977;45.636;11.750;2022-11-14T04:48:11;12.10;84.90
73137;DHT22;62977;45.636;11.750;2022-11-14T04:50:37;12.10;84.60
73137;DHT22;62977;45.636;11.750;2022-11-14T04:53:02;12.20;84.40
73137;DHT22;62977;45.636;11.750;2022-11-14T04:55:28;12.10;84.40
73137;DHT22;62977;45.636;11.750;2022-11-14T04:57:55;12.20;84.30
73137;DHT22;62977;45.636;11.750;2022-11-14T05:00:21;12.20;84.40
73137;DHT22;62977;45.636;11.750;2022-11-14T05:02:46;12.30;84.20
73137;DHT22;62977;45.636;11.750;2022-11-14T05:05:12;12.40;84.00
73137;DHT22;62977;45.636;11.750;2022-11-14T05:07:38;12.40;84.00
73137;DHT22;62977;45.636;11.750;2022-11-14T05:10:04;12.40;84.10
73137;DHT22;62977;45.636;11.750;2022-11-14T05:12:30;12.40;83.80
73137;DHT22;62977;45.636;11.750;2022-11-14T05:14:55;12.20;84.30
73137;DHT22;62977;45.636;11.750;2022-11-14T05:17:21;12.30;84.60
73137;DHT22;62977;45.636;11.750;2022-11-14T05:19:47;12.30;84.30
73137;DHT22;62977;45.636;11.750;2022-11-14T05:22:13;12.30;84.50
73137;DHT22;62977;45.636;11.750;2022-11-14T05:24:39;12.30;84.40
73137;DHT22;62977;45.636;11.750;2022-11-14T05:27:05;12.30;84.20
73137;DHT22;62977;45.636;11.750;2022-11-14T05:29:30;12.20;84.30
73137;DHT22;62977;45.636;11.750;2022-11-14T05:31:56;12.30;84.30
73137;DHT22;62977;45.636;11.750;2022-11-14T05:34:22;12.30;84.40
73137;DHT22;62977;45.636;11.750;2022-11-14T05:36:48;12.20;84.50
73137;DHT22;62977;45.636;11.750;2022-11-14T05:39:15;12.30;84.60
73137;DHT22;62977;45.636;11.750;2022-11-14T05:41:40;12.30;84.50
73137;DHT22;62977;45.636;11.750;2022-11-14T05:44:06;12.20;84.70
73137;DHT22;62977;45.636;11.750;2022-11-14T05:46:32;12.30;84.70
73137;DHT22;62977;45.636;11.750;2022-11-14T05:48:58;12.40;84.50
73137;DHT22;62977;45.636;11.750;2022-11-14T05:51:24;12.50;84.40
73137;DHT22;62977;45.636;11.750;2022-11-14T05:53:49;12.50;84.50
73137;DHT22;62977;45.636;11.750;2022-11-14T05:56:15;12.40;84.20
73137;DHT22;62977;45.636;11.750;2022-11-14T05:58:41;12.50;84.00
73137;DHT22;62977;45.636;11.750;2022-11-14T06:01:14;12.40;84.40
73137;DHT22;62977;45.636;11.750;2022-11-14T06:03:43;12.30;84.50
73137;DHT22;62977;45.636;11.750;2022-11-14T06:06:11;12.40;84.40
73137;DHT22;62977;45.636;11.750;2022-11-14T06:08:38;12.40;84.30
73137;DHT22;62977;45.636;11.750;2022-11-14T06:11:05;12.30;84.70
73137;DHT22;62977;45.636;11.750;2022-11-14T06:13:32;12.30;84.60
73137;DHT22;62977;45.636;11.750;2022-11-14T06:16:02;12.40;84.80
73137;DHT22;62977;45.636;11.750;2022-11-14T06:18:29;12.30;85.00
73137;DHT22;62977;45.636;11.750;2022-11-14T06:20:59;12.30;84.90
73137;DHT22;62977;45.636;11.750;2022-11-14T06:23:25;12.30;85.00
73137;DHT22;62977;45.636;11.750;2022-11-14T06:25:51;12.30;84.90
73137;DHT22;62977;45.636;11.750;2022-11-14T06:28:17;12.20;84.90
73137;DHT22;62977;45.636;11.750;2022-11-14T06:30:42;12.30;85.00
73137;DHT22;62977;45.636;11.750;2022-11-14T06:33:08;12.40;85.00
73137;DHT22;62977;45.636;11.750;2022-11-14T06:35:34;12.30;84.60
73137;DHT22;62977;45.636;11.750;2022-11-14T06:38:01;12.30;84.60
73137;DHT22;62977;45.636;11.750;2022-11-14T06:40:27;12.40;84.80
73137;DHT22;62977;45.636;11.750;2022-11-14T06:42:54;12.40;84.90
73137;DHT22;62977;45.636;11.750;2022-11-14T06:45:21;12.40;84.50
73137;DHT22;62977;45.636;11.750;2022-11-14T06:47:46;12.50;84.60
73137;DHT22;62977;45.636;11.750;2022-11-14T06:50:12;12.50;84.50
73137;DHT22;62977;45.636;11.750;2022-11-14T06:52:38;12.50;84.40
73137;DHT22;62977;45.636;11.750;2022-11-14T06:55:04;12.70;84.50
73137;DHT22;62977;45.636;11.750;2022-11-14T06:57:30;12.70;83.50
73137;DHT22;62977;45.636;11.750;2022-11-14T06:59:55;12.70;84.60
73137;DHT22;62977;45.636;11.750;2022-11-14T07:02:21;12.70;84.20
73137;DHT22;62977;45.636;11.750;2022-11-14T07:04:47;12.80;83.40
73137;DHT22;62977;45.636;11.750;2022-11-14T07:07:12;12.90;83.30
73137;DHT22;62977;45.636;11.750;2022-11-14T07:09:38;12.80;83.00
73137;DHT22;62977;45.636;11.750;2022-11-14T07:12:04;12.90;83.20
73137;DHT22;62977;45.636;11.750;2022-11-14T07:14:29;12.80;83.10
73137;DHT22;62977;45.636;11.750;2022-11-14T07:16:55;12.90;83.00
73137;DHT22;62977;45.636;11.750;2022-11-14T07:19:22;12.90;82.80
73137;DHT22;62977;45.636;11.750;2022-11-14T07:21:47;12.80;82.90
73137;DHT22;62977;45.636;11.750;2022-11-14T07:24:13;12.80;82.90
73137;DHT22;62977;45.636;11.750;2022-11-14T07:26:39;13.00;82.80
73137;DHT22;62977;45.636;11.750;2022-11-14T07:29:04;13.10;82.40
73137;DHT22;62977;45.636;11.750;2022-11-14T07:31:30;13.10;82.80
73137;DHT22;62977;45.636;11.750;2022-11-14T07:33:56;13.20;82.40
73137;DHT22;62977;45.636;11.750;2022-11-14T07:36:22;13.20;82.50
73137;DHT22;62977;45.636;11.750;2022-11-14T07:38:48;13.20;82.20
73137;DHT22;62977;45.636;11.750;2022-11-14T07:41:15;13.30;82.10
73137;DHT22;62977;45.636;11.750;2022-11-14T07:43:41;13.30;82.50
73137;DHT22;62977;45.636;11.750;2022-11-14T07:46:10;13.40;82.70
73137;DHT22;62977;45.636;11.750;2022-11-14T07:48:36;13.50;82.40
73137;DHT22;62977;45.636;11.750;2022-11-14T07:51:05;13.40;82.20
73137;DHT22;62977;45.636;11.750;2022-11-14T07:53:32;13.40;81.90
73137;DHT22;62977;45.636;11.750;2022-11-14T07:56:02;13.40;81.90
73137;DHT22;62977;45.636;11.750;2022-11-14T07:58:28;13.40;81.70
73137;DHT22;62977;45.636;11.750;2022-11-14T08:00:54;13.50;82.10
73137;DHT22;62977;45.636;11.750;2022-11-14T08:03:20;13.40;82.20
73137;DHT22;62977;45.636;11.750;2022-11-14T08:05:45;13.50;82.60
73137;DHT22;62977;45.636;11.750;2022-11-14T08:08:11;13.60;82.60
73137;DHT22;62977;45.636;11.750;2022-11-14T08:10:37;13.60;82.20
73137;DHT22;62977;45.636;11.750;2022-11-14T08:13:04;13.60;82.20
73137;DHT22;62977;45.636;11.750;2022-11-14T08:15:30;13.70;82.00
73137;DHT22;62977;45.636;11.750;2022-11-14T08:17:57;13.90;82.30
73137;DHT22;62977;45.636;11.750;2022-11-14T08:20:24;14.10;82.20
73137;DHT22;62977;45.636;11.750;2022-11-14T08:22:51;14.30;81.60
73137;DHT22;62977;45.636;11.750;2022-11-14T08:25:17;14.30;81.10
73137;DHT22;62977;45.636;11.750;2022-11-14T08:27:42;14.40;80.60
73137;DHT22;62977;45.636;11.750;2022-11-14T08:30:08;14.50;80.40
73137;DHT22;62977;45.636;11.750;2022-11-14T08:32:34;14.50;80.60
73137;DHT22;62977;45.636;11.750;2022-11-14T08:35:00;14.70;79.80
73137;DHT22;62977;45.636;11.750;2022-11-14T08:37:25;14.70;79.70
73137;DHT22;62977;45.636;11.750;2022-11-14T08:39:51;14.80;80.00
73137;DHT22;62977;45.636;11.750;2022-11-14T08:42:17;14.80;79.80
73137;DHT22;62977;45.636;11.750;2022-11-14T08:44:42;14.80;79.90
73137;DHT22;62977;45.636;11.750;2022-11-14T08:47:08;14.90;79.80
73137;DHT22;62977;45.636;11.750;2022-11-14T08:49:33;15.00;79.60
73137;DHT22;62977;45.636;11.750;2022-11-14T08:51:59;14.90;79.50
73137;DHT22;62977;45.636;11.750;2022-11-14T08:54:25;15.00;79.20
73137;DHT22;62977;45.636;11.750;2022-11-14T08:56:50;15.00;79.10
73137;DHT22;62977;45.636;11.750;2022-11-14T08:59:16;15.00;78.80
73137;DHT22;62977;45.636;11.750;2022-11-14T09:01:42;15.00;78.50
73137;DHT22;62977;45.636;11.750;2022-11-14T09:04:07;15.00;77.90
73137;DHT22;62977;45.636;11.750;2022-11-14T09:06:33;14.90;77.60
73137;DHT22;62977;45.636;11.750;2022-11-14T09:08:59;15.00;77.80
73137;DHT22;62977;45.636;11.750;2022-11-14T09:11:25;15.00;77.20
73137;DHT22;62977;45.636;11.750;2022-11-14T09:13:50;15.10;77.20
73137;DHT22;62977;45.636;11.750;2022-11-14T09:16:16;15.00;76.70
73137;DHT22;62977;45.636;11.750;2022-11-14T09:18:42;15.30;76.80
73137;DHT22;62977;45.636;11.750;2022-11-14T09:21:09;15.50;75.10
73137;DHT22;62977;45.636;11.750;2022-11-14T09:23:35;15.60;74.80
73137;DHT22;62977;45.636;11.750;2022-11-14T09:26:08;15.90;74.80
73137;DHT22;62977;45.636;11.750;2022-11-14T09:28:35;15.80;74.80
73137;DHT22;62977;45.636;11.750;2022-11-14T09:31:06;15.90;74.70
73137;DHT22;62977;45.636;11.750;2022-11-14T09:33:33;15.90;74.80
73137;DHT22;62977;45.636;11.750;2022-11-14T09:36:00;15.90;75.00
73137;DHT22;62977;45.636;11.750;2022-11-14T09:38:26;15.80;74.80
73137;DHT22;62977;45.636;11.750;2022-11-14T09:44:33;15.90;74.40
73137;DHT22;62977;45.636;11.750;2022-11-14T09:46:42;15.70;74.90
73137;DHT22;62977;45.636;11.750;2022-11-14T09:49:37;15.70;74.50
73137;DHT22;62977;45.636;11.750;2022-11-14T09:54:57;15.80;74.90
73137;DHT22;62977;45.636;11.750;2022-11-14T09:57:24;15.90;74.60
73137;DHT22;62977;45.636;11.750;2022-11-14T09:59:50;15.90;75.10
73137;DHT22;62977;45.636;11.750;2022-11-14T10:08:13;15.70;75.10
73137;DHT22;62977;45.636;11.750;2022-11-14T10:10:51;15.60;75.10
73137;DHT22;62977;45.636;11.750;2022-11-14T10:30:22;15.60;74.30
73137;DHT22;62977;45.636;11.750;2022-11-14T10:33:02;15.70;74.10
73137;DHT22;62977;45.636;11.750;2022-11-14T10:38:29;15.60;74.60
73137;DHT22;62977;45.636;11.750;2022-11-14T10:41:04;15.70;74.30
73137;DHT22;62977;45.636;11.750;2022-11-14T10:43:45;15.80;74.50
73137;DHT22;62977;45.636;11.750;2022-11-14T10:46:36;15.80;74.00
73137;DHT22;62977;45.636;11.750;2022-11-14T10:49:15;15.90;73.90
73137;DHT22;62977;45.636;11.750;2022-11-14T10:51:46;15.90;73.50
73137;DHT22;62977;45.636;11.750;2022-11-14T10:54:31;16.00;73.60
73137;DHT22;62977;45.636;11.750;2022-11-14T10:56:58;16.60;73.20
73137;DHT22;62977;45.636;11.750;2022-11-14T10:59:24;17.60;71.90
73137;DHT22;62977;45.636;11.750;2022-11-14T11:01:55;18.30;66.80
73137;DHT22;62977;45.636;11.750;2022-11-14T11:04:27;18.50;67.50
73137;DHT22;62977;45.636;11.750;2022-11-14T11:06:56;18.70;64.30
73137;DHT22;62977;45.636;11.750;2022-11-14T11:09:26;18.90;62.50
73137;DHT22;62977;45.636;11.750;2022-11-14T11:12:16;19.10;62.00
73137;DHT22;62977;45.636;11.750;2022-11-14T11:14:43;19.20;62.60
73137;DHT22;62977;45.636;11.750;2022-11-14T11:17:19;19.50;62.60
73137;DHT22;62977;45.636;11.750;2022-11-14T11:19:46;20.20;58.80
73137;DHT22;62977;45.636;11.750;2022-11-14T11:22:27;20.50;59.60
73137;DHT22;62977;45.636;11.750;2022-11-14T11:24:53;19.90;60.80
73137;DHT22;62977;45.636;11.750;2022-11-14T11:27:22;19.30;61.30
73137;DHT22;62977;45.636;11.750;2022-11-14T11:32:31;18.60;63.30
73137;DHT22;62977;45.636;11.750;2022-11-14T11:35:00;18.50;64.10
73137;DHT22;62977;45.636;11.750;2022-11-14T11:37:53;18.40;64.80
73137;DHT22;62977;45.636;11.750;2022-11-14T11:40:26;18.40;65.10
73137;DHT22;62977;45.636;11.750;2022-11-14T11:45:21;18.00;70.00
73137;DHT22;62977;45.636;11.750;2022-11-14T11:48:02;18.30;65.10
73137;DHT22;62977;45.636;11.750;2022-11-14T11:50:29;18.20;64.20
73137;DHT22;62977;45.636;11.750;2022-11-14T11:55:59;18.40;65.00
73137;DHT22;62977;45.636;11.750;2022-11-14T11:58:34;18.00;70.00
73137;DHT22;62977;45.636;11.750;2022-11-14T12:01:02;18.20;66.10
73137;DHT22;62977;45.636;11.750;2022-11-14T12:03:28;18.40;65.70
73137;DHT22;62977;45.636;11.750;2022-11-14T12:08:34;18.30;66.30
73137;DHT22;62977;45.636;11.750;2022-11-14T12:11:04;18.30;67.00
73137;DHT22;62977;45.636;11.750;2022-11-14T12:30:59;18.30;67.20
73137;DHT22;62977;45.636;11.750;2022-11-14T12:33:29;18.40;67.30
73137;DHT22;62977;45.636;11.750;2022-11-14T12:35:59;18.40;66.70
73137;DHT22;62977;45.636;11.750;2022-11-14T12:38:31;18.20;66.60
73137;DHT22;62977;45.636;11.750;2022-11-14T12:40:59;18.20;68.00
73137;DHT22;62977;45.636;11.750;2022-11-14T12:43:40;18.20;67.80
73137;DHT22;62977;45.636;11.750;2022-11-14T12:46:10;18.30;69.90
73137;DHT22;62977;45.636;11.750;2022-11-14T12:48:45;18.40;68.00
73137;DHT22;62977;45.636;11.750;2022-11-14T12:53:49;18.10;71.70
73137;DHT22;62977;45.636;11.750;2022-11-14T13:02:16;18.10;71.20
73137;DHT22;62977;45.636;11.750;2022-11-14T13:05:01;18.00;71.60
73137;DHT22;62977;45.636;11.750;2022-11-14T13:10:15;18.00;71.30
73137;DHT22;62977;45.636;11.750;2022-11-14T13:13:08;17.80;71.90
73137;DHT22;62977;45.636;11.750;2022-11-14T13:15:54;17.90;71.90
73137;DHT22;62977;45.636;11.750;2022-11-14T13:27:34;17.90;72.10
73137;DHT22;62977;45.636;11.750;2022-11-14T13:30:03;18.00;71.70
73137;DHT22;62977;45.636;11.750;2022-11-14T13:36:00;18.10;71.90
73137;DHT22;62977;45.636;11.750;2022-11-14T13:38:25;18.00;71.50
73137;DHT22;62977;45.636;11.750;2022-11-14T13:41:12;18.20;70.60
73137;DHT22;62977;45.636;11.750;2022-11-14T13:49:52;18.30;70.10
73137;DHT22;62977;45.636;11.750;2022-11-14T13:52:21;18.30;70.30
73137;DHT22;62977;45.636;11.750;2022-11-14T13:54:48;17.70;71.70
73137;DHT22;62977;45.636;11.750;2022-11-14T14:00:17;17.80;72.10
73137;DHT22;62977;45.636;11.750;2022-11-14T14:18:48;17.90;72.10
73137;DHT22;62977;45.636;11.750;2022-11-14T14:32:20;17.50;72.60
73137;DHT22;62977;45.636;11.750;2022-11-14T14:34:46;17.70;72.80
73137;DHT22;62977;45.636;11.750;2022-11-14T14:37:21;17.60;73.10
73137;DHT22;62977;45.636;11.750;2022-11-14T14:39:56;17.50;73.00
73137;DHT22;62977;45.636;11.750;2022-11-14T14:42:23;17.60;72.90
73137;DHT22;62977;45.636;11.750;2022-11-14T14:44:49;17.60;73.10
73137;DHT22;62977;45.636;11.750;2022-11-14T14:47:38;17.50;72.90
73137;DHT22;62977;45.636;11.750;2022-11-14T14:50:20;17.50;73.00
73137;DHT22;62977;45.636;11.750;2022-11-14T14:52:57;17.30;73.30
73137;DHT22;62977;45.636;11.750;2022-11-14T14:55:31;16.70;73.60
73137;DHT22;62977;45.636;11.750;2022-11-14T15:01:00;16.90;73.60
73137;DHT22;62977;45.636;11.750;2022-11-14T15:03:31;17.10;73.50
73137;DHT22;62977;45.636;11.750;2022-11-14T15:06:02;17.30;73.40
73137;DHT22;62977;45.636;11.750;2022-11-14T15:08:29;17.30;73.70
73137;DHT22;62977;45.636;11.750;2022-11-14T15:10:58;17.20;73.70
73137;DHT22;62977;45.636;11.750;2022-11-14T15:13:25;17.20;73.80
73137;DHT22;62977;45.636;11.750;2022-11-14T15:15:52;17.00;73.90
73137;DHT22;62977;45.636;11.750;2022-11-14T15:18:29;17.10;73.90
73137;DHT22;62977;45.636;11.750;2022-11-14T15:23:32;16.70;74.30
73137;DHT22;62977;45.636;11.750;2022-11-14T15:26:02;16.60;74.40
73137;DHT22;62977;45.636;11.750;2022-11-14T15:28:29;16.70;74.20
73137;DHT22;62977;45.636;11.750;2022-11-14T15:31:00;16.70;74.40
73137;DHT22;62977;45.636;11.750;2022-11-14T15:33:34;16.80;74.50
73137;DHT22;62977;45.636;11.750;2022-11-14T15:36:16;16.70;74.40
73137;DHT22;62977;45.636;11.750;2022-11-14T15:39:26;16.60;74.70
73137;DHT22;62977;45.636;11.750;2022-11-14T15:42:10;16.50;74.90
73137;DHT22;62977;45.636;11.750;2022-11-14T15:44:36;16.30;75.60
73137;DHT22;62977;45.636;11.750;2022-11-14T15:47:02;16.20;75.40
73137;DHT22;62977;45.636;11.750;2022-11-14T15:49:29;16.30;75.50
73137;DHT22;62977;45.636;11.750;2022-11-14T15:51:56;16.20;75.90
73137;DHT22;62977;45.636;11.750;2022-11-14T15:57:00;15.90;76.30
73137;DHT22;62977;45.636;11.750;2022-11-14T15:59:28;16.00;76.50
73137;DHT22;62977;45.636;11.750;2022-11-14T16:02:09;15.80;77.00
73137;DHT22;62977;45.636;11.750;2022-11-14T16:04:36;15.80;77.00
73137;DHT22;62977;45.636;11.750;2022-11-14T16:07:03;15.80;77.00
73137;DHT22;62977;45.636;11.750;2022-11-14T16:09:29;15.80;77.30
73137;DHT22;62977;45.636;11.750;2022-11-14T16:11:55;15.80;77.30
73137;DHT22;62977;45.636;11.750;2022-11-14T16:14:21;15.80;77.30
73137;DHT22;62977;45.636;11.750;2022-11-14T16:16:47;15.70;77.30
73137;DHT22;62977;45.636;11.750;2022-11-14T16:19:14;15.70;77.30
73137;DHT22;62977;45.636;11.750;2022-11-14T16:21:40;15.70;77.40
73137;DHT22;62977;45.636;11.750;2022-11-14T16:24:15;15.70;77.20
73137;DHT22;62977;45.636;11.750;2022-11-14T16:26:41;15.70;77.20
73137;DHT22;62977;45.636;11.750;2022-11-14T16:29:07;15.70;76.60
73137;DHT22;62977;45.636;11.750;2022-11-14T16:31:34;15.80;76.60
73137;DHT22;62977;45.636;11.750;2022-11-14T16:33:59;15.70;77.00
73137;DHT22;62977;45.636;11.750;2022-11-14T16:36:25;15.70;77.20
73137;DHT22;62977;45.636;11.750;2022-11-14T16:38:51;15.80;76.90
73137;DHT22;62977;45.636;11.750;2022-11-14T16:41:18;15.60;76.60
73137;DHT22;62977;45.636;11.750;2022-11-14T16:43:44;15.60;76.90
73137;DHT22;62977;45.636;11.750;2022-11-14T16:46:10;15.60;77.00
73137;DHT22;62977;45.636;11.750;2022-11-14T16:48:36;15.50;77.50
73137;DHT22;62977;45.636;11.750;2022-11-14T16:51:02;15.40;77.80
73137;DHT22;62977;45.636;11.750;2022-11-14T16:53:28;15.40;79.40
73137;DHT22;62977;45.636;11.750;2022-11-14T16:55:55;15.50;77.70
73137;DHT22;62977;45.636;11.750;2022-11-14T16:58:20;15.50;78.00
73137;DHT22;62977;45.636;11.750;2022-11-14T17:00:46;15.60;77.90
73137;DHT22;62977;45.636;11.750;2022-11-14T17:03:12;15.50;77.60
73137;DHT22;62977;45.636;11.750;2022-11-14T17:05:48;15.50;78.00
73137;DHT22;62977;45.636;11.750;2022-11-14T17:08:15;15.50;78.00
73137;DHT22;62977;45.636;11.750;2022-11-14T17:10:42;15.50;77.90
73137;DHT22;62977;45.636;11.750;2022-11-14T17:13:08;15.50;78.00
73137;DHT22;62977;45.636;11.750;2022-11-14T17:15:35;15.40;79.40
73137;DHT22;62977;45.636;11.750;2022-11-14T17:18:01;15.30;79.70
73137;DHT22;62977;45.636;11.750;2022-11-14T17:20:27;15.40;80.00
73137;DHT22;62977;45.636;11.750;2022-11-14T17:22:52;15.30;79.70
73137;DHT22;62977;45.636;11.750;2022-11-14T17:25:19;15.30;79.70
73137;DHT22;62977;45.636;11.750;2022-11-14T17:27:45;15.30;79.70
73137;DHT22;62977;45.636;11.750;2022-11-14T17:30:14;15.30;80.00
73137;DHT22;62977;45.636;11.750;2022-11-14T17:32:40;15.20;79.90